Time;durP1;ratioP1;P1;durP2;ratioP2;P2;SDS_P1;SDS_P2;PMS_P1;PMS_P2;Temp;Humidity;BMP_temperature;BMP_pressure;BME280_temperature;BME280_humidity;BME280_pressure;Samples;Min_cycle;Max_cycle;Signal;HPM_P1;HPM_P2
2022/10/18 00:02:09;;;;;;;0.40;0.40;;;;;;;11.88;100.00;100743.59;5085693;28;20020;-69
2022/10/18 00:04:35;;;;;;;0.40;0.40;;;;;;;11.86;100.00;100759.22;5085680;28;20111;-69
2022/10/18 00:07:00;;;;;;;0.77;0.77;;;;;;;11.85;100.00;100752.28;5085805;28;20085;-69
2022/10/18 00:09:26;;;;;;;0.40;0.40;;;;;;;11.83;100.00;100753.19;5085591;28;20024;-69
2022/10/18 00:11:52;;;;;;;0.60;0.60;;;;;;;11.78;100.00;100755.81;5085748;28;20049;-68
2022/10/18 00:14:18;;;;;;;2.80;2.60;;;;;;;11.78;100.00;100761.88;5085548;28;20071;-69
2022/10/18 00:16:43;;;;;;;0.63;0.63;;;;;;;11.81;100.00;100763.59;5085454;28;20024;-68
2022/10/18 00:19:08;;;;;;;0.50;0.50;;;;;;;11.84;100.00;100770.50;5085213;28;20028;-68
2022/10/18 00:21:34;;;;;;;18.10;2.15;;;;;;;11.87;100.00;100776.56;5085462;28;20024;-68
2022/10/18 00:23:59;;;;;;;0.40;0.40;;;;;;;11.92;100.00;100775.66;5084067;28;20032;-69
2022/10/18 00:26:26;;;;;;;0.40;0.40;;;;;;;11.98;100.00;100778.22;5085501;28;20024;-70
2022/10/18 00:29:03;;;;;;;0.40;0.40;;;;;;;12.01;100.00;100781.63;5085361;28;20021;-70
2022/10/18 00:31:31;;;;;;;0.40;0.40;;;;;;;12.04;100.00;100775.56;5085308;28;20398;-69
2022/10/18 00:34:00;;;;;;;2.55;2.35;;;;;;;12.01;100.00;100776.44;5086301;28;20441;-69
2022/10/18 00:36:28;;;;;;;0.47;0.47;;;;;;;12.06;100.00;100778.16;5089654;28;20039;-69
2022/10/18 00:38:53;;;;;;;0.40;0.40;;;;;;;12.08;100.00;100772.06;5089476;28;20029;-70
2022/10/18 00:41:26;;;;;;;0.30;0.30;;;;;;;12.04;100.00;100765.16;5089449;28;20088;-70
2022/10/18 00:44:00;;;;;;;0.38;0.38;;;;;;;12.07;100.00;100772.06;5089238;28;20032;-71
2022/10/18 00:46:28;;;;;;;1.05;1.05;;;;;;;12.03;100.00;100771.22;5089308;28;20016;-70
2022/10/18 00:48:56;;;;;;;1.27;1.27;;;;;;;12.00;100.00;100771.25;5088961;28;20104;-70
2022/10/18 00:51:24;;;;;;;0.40;0.40;;;;;;;11.99;100.00;100772.13;5089002;28;20028;-69
2022/10/18 00:53:50;;;;;;;0.32;0.32;;;;;;;11.98;100.00;100773.00;5089039;28;20543;-69
2022/10/18 00:56:16;;;;;;;0.60;0.60;;;;;;;11.96;100.00;100779.97;5089210;28;20028;-69
2022/10/18 00:58:42;;;;;;;0.40;0.40;;;;;;;11.94;100.00;100769.56;5089115;28;20051;-69
2022/10/18 01:01:07;;;;;;;0.40;0.40;;;;;;;11.92;100.00;100771.31;5089269;28;20028;-69
2022/10/18 01:03:34;;;;;;;0.40;0.40;;;;;;;11.87;100.00;100771.34;5088887;28;20119;-69
2022/10/18 01:05:59;;;;;;;1.30;1.20;;;;;;;11.89;100.00;100769.59;5088980;28;20085;-69
2022/10/18 01:08:33;;;;;;;0.32;0.32;;;;;;;11.88;100.00;100767.88;5089087;28;20055;-69
2022/10/18 01:11:10;;;;;;;1.20;1.15;;;;;;;11.89;100.00;100777.41;5088990;28;20024;-69
2022/10/18 01:13:55;;;;;;;0.30;0.30;;;;;;;11.88;100.00;100782.63;5088602;28;20480;-68
2022/10/18 01:16:49;;;;;;;0.30;0.30;;;;;;;11.85;100.00;100778.28;5087471;28;20107;-68
2022/10/18 01:20:01;;;;;;;1.35;1.25;;;;;;;11.85;100.00;100780.06;5087418;28;20033;-68
2022/10/18 01:22:43;;;;;;;0.85;0.85;;;;;;;11.83;100.00;100767.06;5088637;28;20028;-69
2022/10/18 01:25:50;;;;;;;0.43;0.43;;;;;;;11.81;100.00;100765.31;5088562;28;20051;-68
2022/10/18 01:28:33;;;;;;;0.43;0.43;;;;;;;11.82;100.00;100765.31;5026352;28;20034;-68
2022/10/18 01:31:02;;;;;;;0.40;0.40;;;;;;;11.78;100.00;100758.41;5026428;28;20097;-68
2022/10/18 01:33:49;;;;;;;0.32;0.32;;;;;;;11.76;100.00;100753.22;5025933;28;20054;-68
2022/10/18 01:36:32;;;;;;;44.65;2.25;;;;;;;11.75;100.00;100748.91;5026311;28;20066;-67
2022/10/18 01:39:01;;;;;;;0.40;0.40;;;;;;;11.75;100.00;100754.13;5026413;28;20029;-69
2022/10/18 01:41:28;;;;;;;0.40;0.40;;;;;;;11.76;100.00;100763.63;5026075;28;20030;-68
2022/10/18 01:43:58;;;;;;;0.40;0.40;;;;;;;11.75;100.00;100763.66;5025958;28;20165;-67
2022/10/18 01:46:25;;;;;;;0.40;0.40;;;;;;;11.72;100.00;100755.88;5025527;28;20030;-68
2022/10/18 01:48:52;;;;;;;0.63;0.63;;;;;;;11.70;100.00;100737.69;5025869;28;20057;-68
2022/10/18 01:51:28;;;;;;;0.30;0.30;;;;;;;11.69;100.00;100746.38;5026206;28;20061;-68
2022/10/18 01:53:55;;;;;;;0.63;0.63;;;;;;;11.70;100.00;100742.88;5025994;28;20033;-68
2022/10/18 01:56:29;;;;;;;0.30;0.30;;;;;;;11.67;100.00;100747.22;5025800;28;20044;-67
2022/10/18 01:59:18;;;;;;;0.30;0.30;;;;;;;11.73;100.00;100752.38;5025747;28;20041;-68
2022/10/18 02:02:18;;;;;;;0.38;0.38;;;;;;;11.69;100.00;100751.56;5046413;28;20048;-68
2022/10/18 02:04:48;;;;;;;0.50;0.50;;;;;;;11.70;100.00;100752.41;5087961;28;20052;-68
2022/10/18 02:07:22;;;;;;;0.40;0.40;;;;;;;11.64;100.00;100742.94;5087866;28;20021;-68
2022/10/18 02:10:13;;;;;;;0.40;0.40;;;;;;;11.66;100.00;100746.38;5087985;28;20024;-70
2022/10/18 02:12:42;;;;;;;0.50;0.50;;;;;;;11.62;100.00;100727.34;5087698;28;20024;-69
2022/10/18 02:15:12;;;;;;;0.40;0.40;;;;;;;11.65;100.00;100748.13;5087720;28;20048;-68
2022/10/18 02:17:39;;;;;;;1.92;1.40;;;;;;;11.65;100.00;100742.91;5087526;28;20020;-68
2022/10/18 02:20:07;;;;;;;1.17;1.17;;;;;;;11.66;100.00;100741.19;5087712;28;20025;-68
2022/10/18 02:22:35;;;;;;;0.98;0.98;;;;;;;11.64;100.00;100743.78;5087509;28;20028;-69
2022/10/18 02:25:09;;;;;;;0.40;0.40;;;;;;;11.67;100.00;100752.44;5087803;28;20135;-68
2022/10/18 02:27:35;;;;;;;0.40;0.40;;;;;;;11.66;100.00;100743.78;5087403;28;20031;-68
2022/10/18 02:30:00;;;;;;;0.40;0.40;;;;;;;11.65;100.00;100748.13;5087426;28;20025;-68
2022/10/18 02:32:49;;;;;;;0.40;0.40;;;;;;;11.66;100.00;100749.00;5087181;28;20043;-68
2022/10/18 02:35:27;;;;;;;31.02;4.18;;;;;;;11.66;100.00;100741.19;5087174;28;20031;-68
2022/10/18 02:37:54;;;;;;;0.40;0.40;;;;;;;11.67;100.00;100742.91;5087374;28;20035;-68
2022/10/18 02:40:19;;;;;;;0.40;0.40;;;;;;;11.66;100.00;100738.59;5087052;28;20031;-68
2022/10/18 02:42:52;;;;;;;0.40;0.40;;;;;;;11.69;100.00;100748.09;5087155;28;20029;-69
2022/10/18 02:45:17;;;;;;;0.40;0.40;;;;;;;11.74;100.00;100743.72;5087157;28;20039;-69
2022/10/18 02:47:43;;;;;;;8.18;2.70;;;;;;;11.77;100.00;100747.13;5086908;28;20055;-68
2022/10/18 02:50:08;;;;;;;0.57;0.57;;;;;;;11.78;100.00;100740.22;5087050;28;20024;-68
2022/10/18 02:52:34;;;;;;;0.45;0.45;;;;;;;11.78;100.00;100755.81;5087041;28;20039;-68
2022/10/18 02:55:00;;;;;;;0.50;0.50;;;;;;;11.79;100.00;100741.94;5086888;28;20024;-68
2022/10/18 02:57:25;;;;;;;0.40;0.40;;;;;;;11.77;100.00;100744.53;5086036;28;20028;-67
2022/10/18 02:59:51;;;;;;;1.00;0.98;;;;;;;11.77;100.00;100741.94;5086833;28;20024;-67
2022/10/18 03:02:16;;;;;;;0.40;0.40;;;;;;;11.77;100.00;100743.69;5086610;28;20025;-67
2022/10/18 03:04:41;;;;;;;2.20;2.05;;;;;;;11.74;100.00;100744.56;5086622;28;20029;-67
2022/10/18 03:07:06;;;;;;;0.70;0.70;;;;;;;11.76;100.00;100750.63;5086830;28;20035;-68
2022/10/18 03:09:32;;;;;;;0.40;0.40;;;;;;;11.78;100.00;100742.81;5086443;28;20024;-67
2022/10/18 03:11:57;;;;;;;0.40;0.40;;;;;;;11.77;100.00;100738.50;5086567;28;20135;-67
2022/10/18 03:14:23;;;;;;;0.40;0.40;;;;;;;11.77;100.00;100743.69;5086427;28;20025;-67
2022/10/18 03:16:48;;;;;;;0.40;0.40;;;;;;;11.80;100.00;100735.88;5086459;28;20024;-67
2022/10/18 03:19:14;;;;;;;0.40;0.40;;;;;;;11.81;100.00;100734.97;5086317;28;20020;-66
2022/10/18 03:21:39;;;;;;;0.40;0.40;;;;;;;11.82;100.00;100735.84;5086155;28;20016;-67
2022/10/18 03:24:05;;;;;;;0.95;0.95;;;;;;;11.79;100.00;100731.53;5086204;28;20023;-67
2022/10/18 03:26:30;;;;;;;1.17;0.95;;;;;;;11.81;100.00;100729.78;5086018;28;20534;-67
2022/10/18 03:28:55;;;;;;;0.30;0.30;;;;;;;11.82;100.00;100744.50;5084838;28;20029;-67
2022/10/18 03:31:21;;;;;;;0.45;0.45;;;;;;;11.84;100.00;100744.47;5084936;28;20040;-66
2022/10/18 03:33:46;;;;;;;0.40;0.40;;;;;;;11.82;100.00;100726.28;5085843;28;20098;-67
2022/10/18 03:36:12;;;;;;;0.40;0.40;;;;;;;11.87;100.00;100742.72;5086068;28;20092;-67
2022/10/18 03:38:37;;;;;;;0.60;0.60;;;;;;;11.88;100.00;100743.59;5086152;28;20044;-67
2022/10/18 03:41:03;;;;;;;0.55;0.55;;;;;;;11.85;99.65;100747.06;5086042;28;20031;-67
2022/10/18 03:43:28;;;;;;;0.40;0.40;;;;;;;11.88;99.95;100734.06;5084381;28;20052;-67
2022/10/18 03:45:54;;;;;;;0.40;0.40;;;;;;;11.86;100.00;100730.63;5086124;28;20048;-67
2022/10/18 03:48:19;;;;;;;0.40;0.40;;;;;;;11.88;99.95;100731.47;5085809;28;20024;-68
2022/10/18 03:50:44;;;;;;;0.40;0.40;;;;;;;11.88;99.32;100728.88;5085724;28;20517;-68
2022/10/18 03:53:10;;;;;;;0.40;0.40;;;;;;;11.92;99.74;100736.66;5085779;28;20012;-68
2022/10/18 03:55:37;;;;;;;0.40;0.40;;;;;;;11.94;100.00;100743.53;5085784;28;20024;-68
2022/10/18 03:58:02;;;;;;;0.40;0.40;;;;;;;11.96;99.69;100730.53;5084779;28;20032;-68
2022/10/18 04:00:28;;;;;;;0.40;0.40;;;;;;;11.93;99.82;100731.44;5084523;28;20106;-68
2022/10/18 04:02:53;;;;;;;0.30;0.30;;;;;;;12.03;99.58;100727.84;5084178;28;20052;-67
2022/10/18 04:05:19;;;;;;;0.30;0.30;;;;;;;12.02;99.51;100733.06;5084797;28;20033;-68
2022/10/18 04:07:44;;;;;;;0.40;0.40;;;;;;;11.99;99.27;100720.97;5085395;28;20084;-67
2022/10/18 04:10:09;;;;;;;0.40;0.40;;;;;;;11.98;99.56;100716.63;5085638;28;20103;-66
2022/10/18 04:12:35;;;;;;;0.88;0.88;;;;;;;11.92;98.88;100706.25;5085680;28;20035;-68
2022/10/18 04:15:01;;;;;;;0.30;0.30;;;;;;;11.95;99.04;100719.25;5085568;28;20021;-67
2022/10/18 04:17:26;;;;;;;0.40;0.40;;;;;;;11.94;98.85;100717.53;5085789;28;20040;-67
2022/10/18 04:19:51;;;;;;;0.60;0.60;;;;;;;11.94;98.89;100712.31;5085374;28;20028;-68
2022/10/18 04:22:16;;;;;;;0.40;0.40;;;;;;;11.92;98.91;100716.66;5085513;28;20035;-67
2022/10/18 04:24:42;;;;;;;0.40;0.40;;;;;;;11.94;98.54;100724.47;5085496;28;20039;-67
2022/10/18 04:27:07;;;;;;;0.30;0.30;;;;;;;11.94;98.97;100719.25;5085577;28;20025;-67
2022/10/18 04:29:33;;;;;;;0.30;0.30;;;;;;;11.95;99.23;100716.63;5085525;28;20107;-67
2022/10/18 04:31:59;;;;;;;0.50;0.50;;;;;;;11.94;98.76;100714.06;5085315;28;20044;-71
2022/10/18 04:34:24;;;;;;;0.40;0.40;;;;;;;11.97;98.70;100716.63;5085081;28;20031;-67
2022/10/18 04:36:50;;;;;;;0.30;0.30;;;;;;;11.97;98.55;100716.63;5085174;28;20431;-67
2022/10/18 04:39:16;;;;;;;1.83;1.73;;;;;;;11.96;98.40;100718.38;5085150;28;20032;-67
2022/10/18 04:41:41;;;;;;;0.30;0.30;;;;;;;11.95;97.83;100711.44;5085236;28;20028;-67
2022/10/18 04:44:06;;;;;;;0.40;0.40;;;;;;;11.93;98.02;100712.34;5085450;28;20027;-68
2022/10/18 04:46:32;;;;;;;0.40;0.40;;;;;;;11.93;98.07;100710.63;5085383;28;20029;-67
2022/10/18 04:49:00;;;;;;;0.30;0.30;;;;;;;11.97;98.10;100714.03;5085287;28;20047;-67
2022/10/18 04:51:25;;;;;;;0.40;0.40;;;;;;;11.94;97.85;100708.84;5085236;28;20108;-67
2022/10/18 04:53:50;;;;;;;0.40;0.40;;;;;;;11.95;98.16;100708.84;5084902;28;20021;-68
2022/10/18 04:56:16;;;;;;;2.20;2.10;;;;;;;11.98;97.73;100726.19;5085111;28;20024;-67
2022/10/18 04:58:41;;;;;;;0.40;0.40;;;;;;;11.97;97.52;100730.50;5085311;28;20076;-66
2022/10/18 05:01:07;;;;;;;0.40;0.40;;;;;;;11.99;97.47;100714.88;5085109;28;20025;-68
2022/10/18 05:03:33;;;;;;;0.40;0.40;;;;;;;11.98;97.70;100724.41;5084993;28;20020;-68
2022/10/18 05:05:58;;;;;;;0.47;0.47;;;;;;;11.97;96.96;100720.09;5085158;28;20411;-68
2022/10/18 05:08:23;;;;;;;0.40;0.40;;;;;;;11.97;97.17;100717.50;5085142;28;20028;-68
2022/10/18 05:10:48;;;;;;;0.40;0.40;;;;;;;11.96;96.72;100723.59;5085109;28;20031;-68
2022/10/18 05:13:15;;;;;;;1.25;1.15;;;;;;;11.98;96.88;100715.78;5085058;28;20399;-67
2022/10/18 05:15:40;;;;;;;0.57;0.57;;;;;;;11.99;96.68;100723.56;5085043;28;20028;-68
2022/10/18 05:18:06;;;;;;;1.23;1.23;;;;;;;11.99;97.35;100720.97;5084893;28;20021;-68
2022/10/18 05:20:31;;;;;;;0.40;0.40;;;;;;;12.01;97.13;100718.34;5086766;28;20040;-68
2022/10/18 05:22:57;;;;;;;0.40;0.40;;;;;;;12.00;96.80;100719.19;5088597;28;20034;-69
2022/10/18 05:25:23;;;;;;;6.03;3.80;;;;;;;11.98;95.92;100720.97;5088130;28;20028;-68
2022/10/18 05:27:48;;;;;;;0.32;0.32;;;;;;;12.00;95.90;100719.19;5087305;28;20032;-68
2022/10/18 05:30:14;;;;;;;3.90;3.53;;;;;;;12.00;96.37;100714.88;5088348;28;20020;-69
2022/10/18 05:32:39;;;;;;;0.88;0.88;;;;;;;11.99;95.88;100720.97;5088311;28;20109;-67
2022/10/18 05:35:05;;;;;;;0.60;0.60;;;;;;;12.03;95.80;100726.97;5088648;28;20024;-70
2022/10/18 05:37:30;;;;;;;0.40;0.40;;;;;;;12.00;95.53;100721.81;5088078;28;20443;-68
2022/10/18 05:39:55;;;;;;;0.40;0.40;;;;;;;12.02;95.56;100723.53;5088447;28;20490;-69
2022/10/18 05:42:21;;;;;;;0.40;0.40;;;;;;;12.03;95.81;100717.44;5088362;28;20046;-69
2022/10/18 05:44:46;;;;;;;0.88;0.88;;;;;;;12.04;95.45;100720.91;5088225;28;20111;-69
2022/10/18 05:47:11;;;;;;;0.93;0.93;;;;;;;12.02;95.33;100718.31;5088397;28;20092;-69
2022/10/18 05:49:37;;;;;;;0.40;0.40;;;;;;;12.06;95.45;100713.94;5088091;28;20120;-69
2022/10/18 05:52:02;;;;;;;0.40;0.40;;;;;;;12.06;95.65;100718.31;5087337;28;20047;-69
2022/10/18 05:54:27;;;;;;;0.40;0.40;;;;;;;12.02;95.16;100718.31;5087419;28;20094;-70
2022/10/18 05:56:53;;;;;;;0.40;0.40;;;;;;;12.02;95.37;100717.47;5088006;28;20021;-69
2022/10/18 05:59:18;;;;;;;0.40;0.40;;;;;;;12.03;95.41;100726.97;5088234;28;20044;-69
2022/10/18 06:01:44;;;;;;;0.40;0.40;;;;;;;11.99;95.23;100723.56;5087757;28;20034;-69
2022/10/18 06:04:10;;;;;;;0.30;0.30;;;;;;;12.00;95.37;100714.00;5088035;28;20054;-69
2022/10/18 06:06:36;;;;;;;0.98;0.98;;;;;;;11.98;95.51;100723.56;5088071;28;20024;-69
2022/10/18 06:09:02;;;;;;;3.50;3.03;;;;;;;11.96;94.69;100714.91;5087787;28;20032;-69
2022/10/18 06:11:28;;;;;;;0.40;0.40;;;;;;;11.95;95.31;100721.00;5087673;28;20032;-68
2022/10/18 06:13:56;;;;;;;18.98;2.15;;;;;;;11.93;94.71;100722.75;5087910;28;20078;-68
2022/10/18 06:16:22;;;;;;;0.63;0.63;;;;;;;11.90;94.14;100718.44;5087936;28;20024;-69
2022/10/18 06:18:50;;;;;;;1.50;1.40;;;;;;;11.90;93.86;100728.84;5087744;28;20032;-70
2022/10/18 06:21:16;;;;;;;0.30;0.30;;;;;;;11.88;93.88;100730.59;5087849;28;20060;-68
2022/10/18 06:23:42;;;;;;;0.40;0.40;;;;;;;11.89;93.84;100733.19;5087629;28;20028;-68
2022/10/18 06:26:09;;;;;;;0.30;0.30;;;;;;;11.87;93.96;100729.72;5087695;28;20026;-67
2022/10/18 06:28:36;;;;;;;0.30;0.30;;;;;;;11.90;93.42;100734.06;5087798;28;20025;-67
2022/10/18 06:31:03;;;;;;;0.40;0.40;;;;;;;11.90;93.25;100734.91;5086775;28;20060;-69
2022/10/18 06:33:33;;;;;;;0.40;0.40;;;;;;;11.89;93.34;100737.50;5086930;28;20055;-68
2022/10/18 06:36:20;;;;;;;0.40;0.40;;;;;;;11.88;93.00;100741.88;5087464;28;20032;-68
2022/10/18 06:38:46;;;;;;;0.40;0.40;;;;;;;11.93;93.28;100744.44;5087358;28;20383;-68
2022/10/18 06:41:11;;;;;;;0.30;0.30;;;;;;;11.93;93.36;100740.97;5087329;28;20048;-68
2022/10/18 06:43:37;;;;;;;0.35;0.35;;;;;;;11.94;93.39;100742.69;5087417;28;20024;-69
2022/10/18 06:46:05;;;;;;;1.30;1.30;;;;;;;11.97;93.46;100745.25;5087289;28;20059;-68
2022/10/18 06:48:31;;;;;;;0.40;0.40;;;;;;;11.96;93.38;100748.75;5087212;28;20025;-69
2022/10/18 06:50:59;;;;;;;0.40;0.40;;;;;;;11.93;92.99;100733.16;5087111;28;20024;-69
2022/10/18 06:53:26;;;;;;;0.40;0.40;;;;;;;11.98;93.12;100744.41;5087167;28;20013;-69
2022/10/18 06:55:57;;;;;;;0.30;0.30;;;;;;;11.97;93.02;100740.91;5087141;28;20384;-69
2022/10/18 06:58:23;;;;;;;0.40;0.40;;;;;;;12.00;92.41;100747.81;5087272;28;20027;-69
2022/10/18 07:00:48;;;;;;;0.40;0.40;;;;;;;11.99;92.00;100743.50;5087097;28;20114;-68
2022/10/18 07:03:13;;;;;;;0.75;0.75;;;;;;;11.98;92.02;100741.78;5085409;28;20088;-67
2022/10/18 07:05:39;;;;;;;0.30;0.30;;;;;;;12.02;92.03;100744.34;5086866;28;20052;-68
2022/10/18 07:08:04;;;;;;;2.63;2.47;;;;;;;12.04;91.67;100746.94;5086804;28;20035;-68
2022/10/18 07:10:29;;;;;;;1.95;1.70;;;;;;;11.99;91.52;100746.97;5086691;28;20050;-68
2022/10/18 07:12:55;;;;;;;0.40;0.40;;;;;;;12.02;91.63;100748.69;5086702;28;20032;-69
2022/10/18 07:15:22;;;;;;;0.30;0.30;;;;;;;12.04;92.19;100754.75;5086885;28;20375;-68
2022/10/18 07:17:48;;;;;;;4.28;1.95;;;;;;;12.07;91.88;100749.50;5086324;28;20331;-67
2022/10/18 07:20:13;;;;;;;0.90;0.85;;;;;;;12.05;91.74;100748.66;5086589;28;20044;-68
2022/10/18 07:22:39;;;;;;;0.32;0.32;;;;;;;12.06;91.37;100755.56;5086369;28;20064;-68
2022/10/18 07:25:05;;;;;;;0.40;0.40;;;;;;;12.09;91.82;100750.38;5086626;28;20040;-68
2022/10/18 07:27:35;;;;;;;2.78;1.95;;;;;;;12.12;91.37;100750.34;5086127;28;20055;-68
2022/10/18 07:30:00;;;;;;;0.52;0.52;;;;;;;12.14;91.11;100748.59;5086398;28;20084;-68
2022/10/18 07:32:25;;;;;;;1.10;1.02;;;;;;;12.21;90.95;100748.53;5086184;28;20040;-68
2022/10/18 07:34:51;;;;;;;0.40;0.40;;;;;;;12.18;90.67;100746.84;5086199;28;20086;-69
2022/10/18 07:37:16;;;;;;;2.08;1.95;;;;;;;12.19;90.26;100750.31;5086386;28;20025;-70
2022/10/18 07:39:41;;;;;;;0.40;0.40;;;;;;;12.17;90.29;100752.06;5086292;28;20412;-69
2022/10/18 07:42:07;;;;;;;0.40;0.40;;;;;;;12.09;90.11;100750.38;5085940;28;20020;-69
2022/10/18 07:44:32;;;;;;;0.40;0.40;;;;;;;11.97;90.68;100758.25;5085895;28;20025;-70
2022/10/18 07:46:57;;;;;;;0.30;0.30;;;;;;;11.88;91.40;100747.09;5086131;28;20047;-70
2022/10/18 07:49:23;;;;;;;0.40;0.40;;;;;;;11.88;91.98;100757.47;5086092;28;20024;-70
2022/10/18 07:51:48;;;;;;;1.15;1.15;;;;;;;11.87;92.00;100754.88;5086107;28;20036;-70
2022/10/18 07:54:13;;;;;;;0.40;0.40;;;;;;;11.86;92.32;100748.81;5085765;28;20462;-70
2022/10/18 07:56:39;;;;;;;0.40;0.40;;;;;;;11.82;92.50;100741.06;5085890;28;20040;-70
2022/10/18 07:59:04;;;;;;;0.40;0.40;;;;;;;11.85;92.52;100751.44;5086138;28;20025;-70
2022/10/18 08:01:29;;;;;;;0.30;0.30;;;;;;;11.85;92.80;100741.88;5086002;28;20036;-70
2022/10/18 08:03:55;;;;;;;0.40;0.40;;;;;;;11.90;92.86;100740.09;5085634;28;20119;-70
2022/10/18 08:06:21;;;;;;;0.40;0.40;;;;;;;11.93;93.05;100743.56;5085868;28;20034;-68
2022/10/18 08:08:47;;;;;;;0.75;0.75;;;;;;;11.99;93.05;100744.38;5085950;28;20074;-69
2022/10/18 08:11:19;;;;;;;0.40;0.40;;;;;;;12.16;93.37;100742.53;5085797;28;20020;-70
2022/10/18 08:13:44;;;;;;;0.40;0.40;;;;;;;12.35;92.73;100738.84;5086015;28;20032;-70
2022/10/18 08:16:13;;;;;;;0.38;0.38;;;;;;;12.47;91.93;100742.22;5085885;28;20092;-68
2022/10/18 08:18:38;;;;;;;0.40;0.40;;;;;;;12.62;91.52;100738.59;5085584;28;20028;-67
2022/10/18 08:21:06;;;;;;;0.30;0.30;;;;;;;12.71;90.50;100748.00;5085632;28;20024;-69
2022/10/18 08:23:32;;;;;;;0.40;0.40;;;;;;;12.66;89.35;100732.44;5085620;28;20080;-70
2022/10/18 08:26:02;;;;;;;1.80;1.70;;;;;;;12.54;89.59;100748.22;5085876;28;20039;-70
2022/10/18 08:28:27;;;;;;;0.40;0.40;;;;;;;12.31;89.12;100744.97;5085581;28;20091;-70
2022/10/18 08:30:53;;;;;;;0.32;0.32;;;;;;;12.09;89.62;100747.75;5085654;28;20556;-70
2022/10/18 08:33:18;;;;;;;0.55;0.55;;;;;;;11.96;90.17;100744.41;5085321;28;20055;-70
2022/10/18 08:35:53;;;;;;;1.95;1.85;;;;;;;11.75;91.09;100750.63;5085696;28;20024;-71
2022/10/18 08:38:19;;;;;;;0.50;0.50;;;;;;;11.61;91.79;100741.19;5085669;28;20050;-71
2022/10/18 08:40:44;;;;;;;0.40;0.40;;;;;;;11.52;92.42;100749.94;5085404;28;20040;-68
2022/10/18 08:43:37;;;;;;;0.43;0.43;;;;;;;11.44;93.04;100743.06;5085400;28;20424;-70
2022/10/18 08:46:02;;;;;;;3.60;3.25;;;;;;;11.38;93.16;100742.22;5085370;28;20043;-70
2022/10/18 08:48:33;;;;;;;0.40;0.40;;;;;;;11.30;93.87;100743.13;5085273;28;20383;-70
2022/10/18 08:51:00;;;;;;;0.40;0.40;;;;;;;11.36;94.82;100735.28;5085402;28;20054;-71
2022/10/18 08:53:57;;;;;;;1.35;1.25;;;;;;;11.47;95.28;100725.69;5085323;28;20025;-71
2022/10/18 08:56:23;;;;;;;0.40;0.40;;;;;;;11.55;95.41;100728.22;5087986;28;20036;-70
2022/10/18 08:58:49;;;;;;;0.40;0.40;;;;;;;11.66;96.12;100733.38;5089498;28;20039;-70
2022/10/18 09:01:14;;;;;;;1.70;1.60;;;;;;;11.82;95.93;100746.25;5089253;28;20058;-69
2022/10/18 09:03:58;;;;;;;0.30;0.30;;;;;;;11.87;95.53;100737.53;5089007;28;20107;-69
2022/10/18 09:06:54;;;;;;;1.05;1.00;;;;;;;11.85;94.82;100736.66;5089189;28;20056;-70
2022/10/18 09:09:51;;;;;;;0.40;0.40;;;;;;;11.81;94.37;100734.09;5089273;28;20036;-69
2022/10/18 09:12:29;;;;;;;0.40;0.40;;;;;;;11.76;94.38;100737.63;5089111;28;20029;-70
2022/10/18 09:15:16;;;;;;;0.47;0.47;;;;;;;11.70;94.71;100742.00;5089051;28;20084;-69
2022/10/18 09:17:44;;;;;;;0.40;0.40;;;;;;;11.64;95.14;100735.13;5088899;28;20030;-68
2022/10/18 09:20:18;;;;;;;0.40;0.40;;;;;;;11.60;95.19;100739.47;5088756;28;20048;-69
2022/10/18 09:22:53;;;;;;;1.00;0.90;;;;;;;11.52;95.00;100743.84;5088855;28;20479;-70
2022/10/18 09:25:20;;;;;;;0.40;0.40;;;;;;;11.49;95.53;100743.88;5088970;28;20094;-70
2022/10/18 09:27:51;;;;;;;0.40;0.40;;;;;;;11.50;95.25;100743.88;5088885;28;20042;-69
2022/10/18 09:30:38;;;;;;;0.40;0.40;;;;;;;11.50;96.33;100745.63;5088621;28;20035;-69
2022/10/18 09:33:24;;;;;;;0.40;0.40;;;;;;;11.59;96.57;100742.97;5088379;28;20054;-70
2022/10/18 09:35:59;;;;;;;0.40;0.40;;;;;;;11.71;96.24;100748.94;5088543;28;20028;-70
2022/10/18 09:38:30;;;;;;;0.60;0.60;;;;;;;11.71;96.37;100748.94;5088651;28;20031;-71
2022/10/18 09:40:58;;;;;;;0.40;0.40;;;;;;;11.73;96.34;100749.78;5088497;28;20039;-69
2022/10/18 09:43:58;;;;;;;0.40;0.40;;;;;;;11.81;96.28;100745.38;5088262;28;20020;-69
2022/10/18 09:46:29;;;;;;;0.40;0.40;;;;;;;11.85;96.27;100741.03;5087885;28;20032;-71
2022/10/18 09:49:18;;;;;;;0.50;0.50;;;;;;;11.84;96.07;100739.28;5088296;28;20086;-70
2022/10/18 09:51:44;;;;;;;0.40;0.40;;;;;;;11.77;96.25;100728.94;5088451;28;20099;-70
2022/10/18 09:54:32;;;;;;;0.30;0.30;;;;;;;12.01;96.75;100731.34;5088474;28;20028;-70
2022/10/18 09:57:08;;;;;;;0.40;0.40;;;;;;;12.13;96.05;100736.47;5088232;28;20039;-71
2022/10/18 09:59:46;;;;;;;0.40;0.40;;;;;;;12.12;94.93;100737.31;5088326;28;20043;-70
2022/10/18 10:02:17;;;;;;;0.95;0.95;;;;;;;12.09;94.89;100733.91;5088152;28;20025;-69
2022/10/18 10:04:43;;;;;;;0.40;0.40;;;;;;;12.17;95.19;100736.44;5088006;28;20463;-70
2022/10/18 10:07:13;;;;;;;0.40;0.40;;;;;;;12.23;94.80;100739.84;5087925;28;20028;-69
2022/10/18 10:09:44;;;;;;;0.50;0.50;;;;;;;12.15;94.37;100746.88;5086656;28;20028;-70
2022/10/18 10:12:43;;;;;;;0.40;0.40;;;;;;;12.11;93.85;100739.94;5088320;28;20016;-70
2022/10/18 10:15:12;;;;;;;0.40;0.40;;;;;;;12.05;94.02;100738.25;5054101;28;20039;-70
2022/10/18 10:17:37;;;;;;;2.22;2.03;;;;;;;12.08;94.82;100738.25;5088008;28;20098;-70
2022/10/18 10:20:14;;;;;;;0.30;0.30;;;;;;;12.34;95.26;100739.75;5087670;28;20447;-70
2022/10/18 10:22:41;;;;;;;0.50;0.50;;;;;;;12.48;94.10;100741.31;5087553;28;20029;-69
2022/10/18 10:25:17;;;;;;;0.45;0.45;;;;;;;12.45;93.27;100737.00;5087856;28;20016;-69
2022/10/18 10:27:44;;;;;;;0.40;0.40;;;;;;;12.43;93.31;100745.72;5087681;28;20024;-69
2022/10/18 10:30:29;;;;;;;0.57;0.57;;;;;;;12.34;92.72;100738.88;5087616;28;20028;-69
2022/10/18 10:32:55;;;;;;;1.13;1.13;;;;;;;12.35;93.38;100741.44;5087461;28;20060;-69
2022/10/18 10:35:38;;;;;;;0.40;0.40;;;;;;;12.31;93.02;100734.56;5087466;28;20044;-70
2022/10/18 10:38:05;;;;;;;0.30;0.30;;;;;;;12.26;92.99;100746.75;5087528;28;20028;-70
2022/10/18 10:40:34;;;;;;;0.40;0.40;;;;;;;12.24;92.90;100749.38;5087420;28;20027;-70
2022/10/18 10:43:08;;;;;;;0.32;0.32;;;;;;;12.24;93.83;100751.09;5087228;28;20031;-69
2022/10/18 10:45:42;;;;;;;0.73;0.73;;;;;;;12.28;93.94;100752.81;5087099;28;20025;-69
2022/10/18 10:48:14;;;;;;;0.40;0.40;;;;;;;12.29;93.96;100744.13;5087068;28;20029;-68
2022/10/18 10:50:53;;;;;;;0.55;0.55;;;;;;;12.33;93.93;100743.19;5087273;28;20032;-69
2022/10/18 10:53:34;;;;;;;0.40;0.40;;;;;;;12.37;94.15;100747.50;5087084;28;20035;-69
2022/10/18 10:56:00;;;;;;;0.40;0.40;;;;;;;12.43;93.53;100751.78;5087204;28;20359;-69
2022/10/18 10:58:31;;;;;;;0.40;0.40;;;;;;;12.52;93.67;100743.88;5086946;28;20416;-68
2022/10/18 11:00:56;;;;;;;0.40;0.40;;;;;;;12.69;93.64;100749.75;5087087;28;20024;-69
2022/10/18 11:03:23;;;;;;;0.30;0.30;;;;;;;12.81;93.85;100741.78;5086843;28;20027;-68
2022/10/18 11:06:00;;;;;;;0.40;0.40;;;;;;;12.86;93.57;100741.78;5086940;28;20028;-69
2022/10/18 11:08:32;;;;;;;0.40;0.40;;;;;;;12.87;92.95;100746.09;5086942;28;20025;-69
2022/10/18 11:11:27;;;;;;;0.40;0.40;;;;;;;12.86;92.45;100728.75;5086796;28;20034;-69
2022/10/18 11:14:12;;;;;;;3.08;1.80;;;;;;;12.82;91.98;100735.72;5086980;28;20157;-69
2022/10/18 11:17:01;;;;;;;0.40;0.40;;;;;;;12.86;92.46;100736.56;5086913;28;20052;-71
2022/10/18 11:19:44;;;;;;;0.40;0.40;;;;;;;12.74;91.42;100735.81;5085760;28;20032;-71
2022/10/18 11:22:15;;;;;;;0.40;0.40;;;;;;;12.60;92.29;100741.16;5086635;28;20036;-71
2022/10/18 11:24:40;;;;;;;0.30;0.30;;;;;;;12.59;92.59;100743.78;5085343;28;20085;-71
2022/10/18 11:27:29;;;;;;;0.40;0.40;;;;;;;12.53;92.43;100739.53;5086651;28;20115;-72
2022/10/18 11:29:57;;;;;;;0.30;0.30;;;;;;;12.38;93.26;100744.03;5086560;28;20045;-71
2022/10/18 11:32:48;;;;;;;28.48;4.45;;;;;;;12.30;93.30;100734.59;5086206;28;20068;-71
2022/10/18 11:35:47;;;;;;;0.40;0.40;;;;;;;12.24;93.65;100735.47;5083213;28;20487;-71